Time;durP1;ratioP1;P1;durP2;ratioP2;P2;SDS_P1;SDS_P2;PMS_P1;PMS_P2;Temp;Humidity;BMP_temperature;BMP_pressure;BME280_temperature;BME280_humidity;BME280_pressure;Samples;Min_cycle;Max_cycle;Signal;HPM_P1;HPM_P2
2023/03/12 00:00:07;;;;;;;13.20;9.13;;;1.70;99.90;;;;;;5041900;28;20302;-74
2023/03/12 00:02:34;;;;;;;15.57;9.33;;;1.60;99.90;;;;;;5023691;28;20590;-75
2023/03/12 00:05:01;;;;;;;14.10;9.30;;;1.60;99.90;;;;;;5031518;28;20207;-75
2023/03/12 00:07:28;;;;;;;15.13;9.23;;;1.60;99.90;;;;;;5025114;28;20247;-74
2023/03/12 00:09:55;;;;;;;13.77;8.77;;;1.60;99.90;;;;;;5043593;28;20210;-74
2023/03/12 00:12:22;;;;;;;19.47;8.83;;;1.60;99.90;;;;;;5049983;28;20654;-74
2023/03/12 00:14:48;;;;;;;16.13;8.73;;;1.50;99.90;;;;;;5045246;28;20285;-75
2023/03/12 00:17:15;;;;;;;16.43;8.87;;;1.60;99.90;;;;;;5041508;28;20212;-75
2023/03/12 00:19:42;;;;;;;17.50;9.40;;;1.50;99.90;;;;;;5027430;28;20233;-74
2023/03/12 00:22:08;;;;;;;16.07;8.60;;;1.50;99.90;;;;;;5044315;28;20199;-74
2023/03/12 00:24:35;;;;;;;11.87;8.07;;;1.50;99.90;;;;;;5041791;28;20202;-74
2023/03/12 00:27:02;;;;;;;10.83;8.20;;;1.50;99.90;;;;;;5044088;28;20227;-74
2023/03/12 00:29:29;;;;;;;15.00;8.10;;;1.50;99.90;;;;;;5040750;28;20209;-75
2023/03/12 00:31:55;;;;;;;16.80;8.27;;;1.50;99.90;;;;;;5046770;28;20205;-75
2023/03/12 00:34:22;;;;;;;11.20;8.13;;;1.40;99.90;;;;;;5042810;28;20218;-75
2023/03/12 00:36:48;;;;;;;15.07;8.53;;;1.40;99.90;;;;;;5025396;28;20201;-74
2023/03/12 00:39:15;;;;;;;17.60;8.07;;;1.40;99.90;;;;;;5043000;28;20300;-73
2023/03/12 00:41:42;;;;;;;13.00;8.70;;;1.30;99.90;;;;;;5041575;28;20607;-73
2023/03/12 00:44:09;;;;;;;14.37;9.47;;;1.30;99.90;;;;;;5040441;28;20647;-73
2023/03/12 00:46:35;;;;;;;14.47;8.67;;;1.20;99.90;;;;;;5023691;28;20253;-74
2023/03/12 00:49:02;;;;;;;16.00;8.03;;;1.20;99.90;;;;;;5041213;28;20585;-74
2023/03/12 00:51:29;;;;;;;13.33;8.10;;;1.20;99.90;;;;;;5046149;28;20205;-74
2023/03/12 00:53:56;;;;;;;11.17;7.60;;;1.20;99.90;;;;;;5043026;28;20244;-73
2023/03/12 00:56:22;;;;;;;14.07;8.30;;;1.20;99.90;;;;;;5044164;28;20297;-74
2023/03/12 00:58:49;;;;;;;11.53;7.50;;;1.20;99.90;;;;;;5008268;28;20212;-73
2023/03/12 01:01:16;;;;;;;14.87;7.80;;;1.20;99.90;;;;;;5025392;28;20251;-73
2023/03/12 01:03:43;;;;;;;17.57;8.00;;;1.20;99.90;;;;;;5041396;28;20226;-74
2023/03/12 01:06:10;;;;;;;10.13;7.17;;;1.20;99.90;;;;;;5025024;28;20232;-75
2023/03/12 01:08:36;;;;;;;12.93;8.20;;;1.30;99.90;;;;;;5024989;28;20209;-73
2023/03/12 01:11:04;;;;;;;13.23;8.17;;;1.30;99.90;;;;;;5022793;28;20191;-75
2023/03/12 01:13:30;;;;;;;14.17;8.67;;;1.30;99.90;;;;;;5027806;28;20198;-73
2023/03/12 01:15:57;;;;;;;16.00;8.83;;;1.40;99.90;;;;;;5043299;28;20292;-75
2023/03/12 01:18:24;;;;;;;14.30;8.20;;;1.30;99.90;;;;;;5041443;28;20280;-74
2023/03/12 01:20:51;;;;;;;15.30;8.43;;;1.40;99.90;;;;;;5041813;28;20235;-74
2023/03/12 01:23:17;;;;;;;12.70;8.23;;;1.40;99.90;;;;;;5043681;28;20215;-75
2023/03/12 01:25:46;;;;;;;13.00;7.53;;;1.40;99.90;;;;;;5040412;28;20285;-74
2023/03/12 01:28:13;;;;;;;13.07;7.90;;;1.50;99.90;;;;;;5023394;28;20237;-74
2023/03/12 01:30:39;;;;;;;15.93;7.70;;;1.50;99.90;;;;;;5042000;28;20570;-74
2023/03/12 01:33:06;;;;;;;13.20;7.33;;;1.50;99.90;;;;;;5023753;28;20281;-74
2023/03/12 01:35:38;;;;;;;13.47;8.10;;;1.60;99.90;;;;;;5027248;28;20202;-73
2023/03/12 01:38:06;;;;;;;14.00;7.63;;;1.60;99.90;;;;;;5044685;28;20210;-76
2023/03/12 01:40:34;;;;;;;11.23;7.67;;;1.70;99.90;;;;;;5039955;28;20234;-74
2023/03/12 01:43:23;;;;;;;15.23;8.73;;;1.70;99.90;;;;;;5023848;28;20211;-74
2023/03/12 01:46:17;;;;;;;16.07;8.50;;;1.80;99.90;;;;;;5042220;28;20263;-74
2023/03/12 01:48:53;;;;;;;13.33;8.10;;;1.80;99.90;;;;;;5040105;28;20229;-74
2023/03/12 01:51:23;;;;;;;14.17;7.43;;;1.80;99.90;;;;;;5042981;28;20325;-73
2023/03/12 01:53:53;;;;;;;14.53;8.20;;;1.80;99.90;;;;;;5044673;28;20203;-75
2023/03/12 01:56:21;;;;;;;15.50;8.00;;;1.80;99.90;;;;;;5028200;28;20309;-74
2023/03/12 01:58:51;;;;;;;14.60;8.27;;;1.80;99.90;;;;;;5041731;28;20216;-74
2023/03/12 02:01:20;;;;;;;15.00;8.10;;;1.90;99.90;;;;;;5031301;28;20295;-74
2023/03/12 02:03:52;;;;;;;15.00;7.87;;;1.90;99.90;;;;;;5037180;28;20218;-75
2023/03/12 02:06:27;;;;;;;13.40;7.73;;;1.90;99.90;;;;;;5022334;28;20239;-74
2023/03/12 02:08:55;;;;;;;13.93;8.20;;;1.90;99.90;;;;;;5038472;28;20544;-75
2023/03/12 02:11:22;;;;;;;12.17;8.40;;;1.90;99.90;;;;;;5040141;28;20202;-74
2023/03/12 02:13:48;;;;;;;15.40;8.77;;;1.90;99.90;;;;;;5025479;28;20696;-75
2023/03/12 02:16:15;;;;;;;15.13;8.53;;;1.90;99.90;;;;;;5041536;28;20208;-74
2023/03/12 02:18:43;;;;;;;20.47;11.50;;;1.90;99.90;;;;;;5039727;28;20231;-74
2023/03/12 02:21:19;;;;;;;27.40;14.77;;;1.90;99.90;;;;;;5025169;28;20285;-74
2023/03/12 02:24:01;;;;;;;94.20;44.60;;;1.90;99.90;;;;;;5040779;28;20242;-75
2023/03/12 02:26:29;;;;;;;129.17;58.43;;;1.90;99.90;;;;;;5042969;28;20240;-74
2023/03/12 02:28:58;;;;;;;117.00;59.57;;;1.90;99.90;;;;;;5042827;28;20288;-73
2023/03/12 02:31:31;;;;;;;144.87;69.13;;;1.90;99.90;;;;;;5023256;28;20297;-73
2023/03/12 02:33:59;;;;;;;88.10;44.97;;;1.90;99.90;;;;;;5038909;28;20252;-73
2023/03/12 02:36:26;;;;;;;61.17;32.70;;;1.90;99.90;;;;;;5043687;28;20533;-74
2023/03/12 02:38:54;;;;;;;50.60;25.27;;;1.90;99.90;;;;;;5023004;28;20580;-74
2023/03/12 02:41:38;;;;;;;30.90;14.10;;;1.90;99.90;;;;;;5023936;28;20246;-74
2023/03/12 02:44:24;;;;;;;18.93;11.03;;;2.00;99.90;;;;;;5040231;28;20670;-74
2023/03/12 02:46:57;;;;;;;13.87;8.83;;;2.00;99.90;;;;;;5039841;28;20321;-75
2023/03/12 02:49:27;;;;;;;12.60;7.43;;;2.00;99.90;;;;;;5039490;28;20261;-74
2023/03/12 02:51:55;;;;;;;9.77;7.63;;;2.00;99.90;;;;;;5041708;28;20647;-74
2023/03/12 02:54:22;;;;;;;14.50;7.93;;;2.00;99.90;;;;;;5042569;28;20212;-74
2023/03/12 02:56:50;;;;;;;12.10;8.13;;;2.10;99.90;;;;;;5041342;28;20216;-76
2023/03/12 02:59:20;;;;;;;13.60;8.07;;;2.00;99.90;;;;;;5023174;28;20200;-75
2023/03/12 03:01:54;;;;;;;10.93;7.73;;;2.00;99.90;;;;;;5038226;28;20715;-74
2023/03/12 03:04:22;;;;;;;12.63;7.20;;;2.00;99.90;;;;;;5039211;28;20310;-74
2023/03/12 03:06:49;;;;;;;11.03;7.27;;;2.00;99.90;;;;;;5039502;28;20250;-74
2023/03/12 03:09:16;;;;;;;11.03;7.67;;;2.00;99.90;;;;;;5023688;28;20208;-74
2023/03/12 03:11:43;;;;;;;12.73;7.90;;;2.00;99.90;;;;;;5038571;28;20652;-75
2023/03/12 03:14:10;;;;;;;10.93;7.20;;;2.00;99.90;;;;;;5041610;28;20714;-74
2023/03/12 03:16:36;;;;;;;12.03;6.93;;;2.00;99.90;;;;;;5039820;28;20282;-75
2023/03/12 03:19:04;;;;;;;11.23;7.70;;;2.00;99.90;;;;;;5040148;28;20226;-74
2023/03/12 03:21:31;;;;;;;12.27;7.17;;;2.10;99.90;;;;;;5043537;28;20237;-73
2023/03/12 03:23:58;;;;;;;11.63;7.23;;;2.00;99.90;;;;;;5038684;28;20682;-74
2023/03/12 03:26:25;;;;;;;14.70;7.73;;;2.10;99.90;;;;;;5025606;28;20281;-74
2023/03/12 03:28:52;;;;;;;12.53;6.93;;;2.10;99.90;;;;;;5038786;28;20613;-74
2023/03/12 03:31:19;;;;;;;11.60;6.93;;;2.10;99.90;;;;;;5040414;28;20218;-74
2023/03/12 03:33:47;;;;;;;10.73;6.93;;;2.10;99.90;;;;;;5039186;28;20318;-74
2023/03/12 03:36:14;;;;;;;14.07;7.00;;;2.10;99.90;;;;;;5023245;28;20211;-75
2023/03/12 03:38:41;;;;;;;20.97;11.00;;;2.20;99.90;;;;;;5043196;28;20302;-75
2023/03/12 03:41:08;;;;;;;17.50;10.37;;;2.20;99.90;;;;;;5040033;28;20621;-75
2023/03/12 03:43:34;;;;;;;16.37;10.33;;;2.20;99.90;;;;;;5026102;28;20195;-74
2023/03/12 03:46:04;;;;;;;16.03;9.77;;;2.20;99.90;;;;;;5022144;28;20303;-75
2023/03/12 03:48:31;;;;;;;15.57;8.40;;;2.20;99.90;;;;;;5038582;28;20255;-75
2023/03/12 03:51:03;;;;;;;10.90;7.17;;;2.30;99.90;;;;;;5023000;28;20204;-73
2023/03/12 03:53:30;;;;;;;11.63;8.33;;;2.30;99.90;;;;;;5041143;28;20202;-74
2023/03/12 03:55:57;;;;;;;11.73;6.90;;;2.30;99.90;;;;;;5046249;28;20585;-74
2023/03/12 03:58:24;;;;;;;9.37;7.07;;;2.30;99.90;;;;;;5039882;28;20240;-73
2023/03/12 04:00:53;;;;;;;9.47;7.13;;;2.30;99.90;;;;;;5021302;28;20614;-74
2023/03/12 04:03:19;;;;;;;12.33;6.40;;;2.40;99.90;;;;;;5044280;28;20646;-74
2023/03/12 04:05:52;;;;;;;9.97;6.53;;;2.40;99.90;;;;;;5030461;28;20238;-73
2023/03/12 04:08:19;;;;;;;11.40;6.87;;;2.40;99.90;;;;;;5043052;28;20327;-74
2023/03/12 04:10:45;;;;;;;10.27;6.10;;;2.40;99.90;;;;;;5042493;28;20215;-74
2023/03/12 04:13:12;;;;;;;9.13;6.53;;;2.30;99.90;;;;;;5044547;28;20218;-73
2023/03/12 04:15:45;;;;;;;14.33;7.30;;;2.40;99.90;;;;;;5045042;28;20567;-73
2023/03/12 04:18:12;;;;;;;10.77;6.57;;;2.40;99.90;;;;;;5042278;28;20220;-74
2023/03/12 04:20:39;;;;;;;9.50;6.90;;;2.40;99.90;;;;;;5042570;28;20309;-74
2023/03/12 04:23:05;;;;;;;9.67;6.70;;;2.40;99.90;;;;;;5043842;28;20639;-73
2023/03/12 04:25:32;;;;;;;13.43;6.60;;;2.30;99.90;;;;;;5044421;28;20205;-74
2023/03/12 04:28:00;;;;;;;11.47;6.33;;;2.40;99.90;;;;;;5043407;28;20577;-74
2023/03/12 04:30:26;;;;;;;11.00;6.67;;;2.40;99.90;;;;;;5045342;28;20194;-74
2023/03/12 04:32:53;;;;;;;8.83;6.07;;;2.30;99.90;;;;;;5026961;28;20318;-74
2023/03/12 04:35:20;;;;;;;11.43;6.57;;;2.30;99.90;;;;;;5046297;28;20206;-74
2023/03/12 04:37:47;;;;;;;10.73;5.93;;;2.30;99.90;;;;;;5025988;28;20617;-75
2023/03/12 04:40:14;;;;;;;8.40;5.70;;;2.30;99.90;;;;;;5040915;28;20292;-74
2023/03/12 04:42:41;;;;;;;11.27;6.33;;;2.30;99.90;;;;;;5026228;28;20766;-74
2023/03/12 04:45:09;;;;;;;7.17;6.37;;;2.30;99.90;;;;;;5043590;28;20199;-73
2023/03/12 04:47:36;;;;;;;8.30;6.50;;;2.30;99.90;;;;;;5023753;28;20231;-74
2023/03/12 04:50:03;;;;;;;7.73;6.10;;;2.30;99.90;;;;;;5043075;28;20229;-74
2023/03/12 04:52:29;;;;;;;11.53;6.37;;;2.30;99.90;;;;;;5043391;28;20215;-74
2023/03/12 04:54:58;;;;;;;12.17;7.30;;;2.30;99.90;;;;;;5045270;28;20288;-74
2023/03/12 04:57:25;;;;;;;8.73;6.13;;;2.30;99.90;;;;;;5041423;28;20217;-74
2023/03/12 04:59:52;;;;;;;11.63;6.30;;;2.30;99.90;;;;;;5042576;28;20197;-74
2023/03/12 05:02:18;;;;;;;11.30;7.00;;;2.30;99.90;;;;;;5042620;28;20337;-73
2023/03/12 05:04:45;;;;;;;7.97;5.73;;;2.30;99.90;;;;;;5044127;28;20484;-74
2023/03/12 05:07:12;;;;;;;10.43;6.47;;;2.30;99.90;;;;;;5040638;28;20233;-74
2023/03/12 05:09:38;;;;;;;9.80;7.00;;;2.40;99.90;;;;;;5025727;28;20665;-75
2023/03/12 05:12:05;;;;;;;12.80;7.20;;;2.40;99.90;;;;;;5026858;28;20671;-74
2023/03/12 05:14:32;;;;;;;10.73;6.67;;;2.40;99.90;;;;;;5041743;28;20215;-74
2023/03/12 05:16:59;;;;;;;10.77;6.93;;;2.40;99.90;;;;;;5024036;28;20213;-74
2023/03/12 05:19:25;;;;;;;12.60;6.80;;;2.40;99.90;;;;;;5043022;28;20311;-74
2023/03/12 05:21:52;;;;;;;8.83;6.70;;;2.50;99.90;;;;;;5022772;28;20804;-74
2023/03/12 05:24:20;;;;;;;12.40;6.90;;;2.50;99.90;;;;;;5043253;28;20293;-73
2023/03/12 05:26:47;;;;;;;12.20;6.90;;;2.50;99.90;;;;;;5044457;28;20207;-73
2023/03/12 05:29:14;;;;;;;10.03;5.93;;;2.50;99.90;;;;;;5023535;28;20270;-74
2023/03/12 05:31:41;;;;;;;9.87;6.30;;;2.60;99.90;;;;;;5039693;28;20215;-75
2023/03/12 05:34:11;;;;;;;13.27;6.33;;;2.60;99.90;;;;;;5026948;28;20231;-74
2023/03/12 05:36:38;;;;;;;9.70;5.90;;;2.50;99.90;;;;;;5044993;28;20209;-74
2023/03/12 05:39:05;;;;;;;9.47;5.50;;;2.60;99.90;;;;;;5044443;28;20211;-73
2023/03/12 05:41:32;;;;;;;11.33;4.97;;;2.60;99.90;;;;;;5042484;28;20313;-74
2023/03/12 05:43:59;;;;;;;8.33;4.77;;;2.60;99.90;;;;;;5042241;28;20687;-74
2023/03/12 05:46:26;;;;;;;7.20;4.80;;;2.60;99.90;;;;;;5022395;28;20238;-74
2023/03/12 05:48:53;;;;;;;6.27;4.57;;;2.60;99.90;;;;;;5039490;28;20255;-74
2023/03/12 05:51:20;;;;;;;8.37;4.33;;;2.70;99.90;;;;;;5045757;28;20321;-74
2023/03/12 05:53:47;;;;;;;6.20;4.37;;;2.70;99.90;;;;;;5043911;28;20284;-75
2023/03/12 05:56:16;;;;;;;8.17;4.47;;;2.70;99.90;;;;;;5046904;28;20210;-74
2023/03/12 05:58:43;;;;;;;7.57;4.53;;;2.70;99.90;;;;;;5042725;28;20247;-72
2023/03/12 06:01:12;;;;;;;8.73;4.97;;;2.70;99.90;;;;;;5040810;28;20220;-74
2023/03/12 06:03:41;;;;;;;6.23;5.03;;;2.70;99.90;;;;;;5039820;28;20769;-73
2023/03/12 06:06:08;;;;;;;8.63;5.10;;;2.70;99.90;;;;;;5011437;28;20223;-74
2023/03/12 06:08:35;;;;;;;12.17;6.37;;;2.70;99.90;;;;;;5020814;28;20769;-75
2023/03/12 06:11:02;;;;;;;11.83;5.57;;;2.70;99.90;;;;;;5039648;28;20262;-73
2023/03/12 06:13:29;;;;;;;7.90;5.23;;;2.70;99.90;;;;;;5044081;28;20205;-74
2023/03/12 06:16:08;;;;;;;10.93;4.90;;;2.70;99.90;;;;;;5041589;28;20730;-73
2023/03/12 06:18:35;;;;;;;8.93;5.13;;;2.70;99.90;;;;;;5038979;28;20218;-73
2023/03/12 06:21:19;;;;;;;8.00;5.53;;;2.80;99.90;;;;;;5042054;28;20205;-73
2023/03/12 06:23:47;;;;;;;7.70;5.27;;;2.80;99.90;;;;;;5038700;28;20250;-74
2023/03/12 06:26:15;;;;;;;12.00;6.00;;;2.80;99.90;;;;;;5041026;28;20209;-74
2023/03/12 06:28:43;;;;;;;7.90;5.57;;;2.80;99.90;;;;;;5041939;28;20228;-73
2023/03/12 06:31:10;;;;;;;11.27;6.60;;;2.90;99.90;;;;;;5041358;28;20281;-74
2023/03/12 06:33:37;;;;;;;10.77;5.17;;;2.90;99.90;;;;;;5044640;28;20268;-74
2023/03/12 06:36:06;;;;;;;9.57;5.37;;;2.90;99.90;;;;;;5044080;28;20557;-73
2023/03/12 06:38:34;;;;;;;10.13;5.40;;;2.90;99.90;;;;;;5039972;28;20578;-73
2023/03/12 06:41:07;;;;;;;7.07;5.43;;;3.00;99.90;;;;;;5039967;28;20680;-75
2023/03/12 06:43:37;;;;;;;11.03;4.90;;;3.00;99.90;;;;;;5038546;28;20208;-74
2023/03/12 06:46:06;;;;;;;8.63;5.30;;;3.00;99.90;;;;;;5043879;28;20207;-73
2023/03/12 06:48:35;;;;;;;10.37;5.30;;;3.00;99.90;;;;;;5021642;28;20240;-74
2023/03/12 06:51:09;;;;;;;7.30;5.00;;;3.10;99.90;;;;;;5041721;28;20212;-75
2023/03/12 06:53:36;;;;;;;9.50;5.00;;;3.10;99.90;;;;;;5023193;28;20295;-73
2023/03/12 06:56:06;;;;;;;8.93;5.50;;;3.10;99.90;;;;;;5027517;28;20544;-74
2023/03/12 06:58:32;;;;;;;10.23;5.40;;;3.10;99.90;;;;;;5036096;28;20212;-73
2023/03/12 07:00:59;;;;;;;14.70;6.90;;;3.10;99.90;;;;;;5027094;28;20211;-73
2023/03/12 07:03:26;;;;;;;8.57;5.73;;;3.20;99.90;;;;;;5023050;28;20336;-73
2023/03/12 07:05:55;;;;;;;9.57;6.27;;;3.20;99.90;;;;;;5024261;28;20248;-74
2023/03/12 07:08:22;;;;;;;12.27;6.87;;;3.20;99.90;;;;;;5021805;28;20228;-74
2023/03/12 07:10:48;;;;;;;14.73;7.97;;;3.20;99.90;;;;;;5042329;28;20204;-74
2023/03/12 07:13:15;;;;;;;12.77;8.93;;;3.20;99.90;;;;;;5039527;28;20235;-73
2023/03/12 07:15:43;;;;;;;15.63;8.93;;;3.20;99.90;;;;;;5036892;28;20201;-74
2023/03/12 07:18:11;;;;;;;17.13;9.43;;;3.20;99.90;;;;;;5037004;28;20235;-74
2023/03/12 07:20:40;;;;;;;14.77;9.47;;;3.20;99.90;;;;;;5023830;28;20600;-74
2023/03/12 07:23:07;;;;;;;19.47;9.47;;;3.30;99.90;;;;;;5042369;28;20201;-74
2023/03/12 07:25:39;;;;;;;13.87;8.53;;;3.30;99.90;;;;;;5042117;28;20297;-73
2023/03/12 07:28:07;;;;;;;13.00;8.87;;;3.40;99.90;;;;;;5044552;28;20655;-74
2023/03/12 07:30:34;;;;;;;17.13;8.73;;;3.40;99.90;;;;;;5046235;28;20651;-73
2023/03/12 07:33:10;;;;;;;18.77;8.40;;;3.50;99.90;;;;;;5027631;28;20213;-73
2023/03/12 07:35:38;;;;;;;14.80;7.97;;;3.50;99.90;;;;;;5041252;28;20472;-73
2023/03/12 07:38:05;;;;;;;16.03;7.33;;;3.60;99.90;;;;;;5047554;28;20205;-74
2023/03/12 07:40:32;;;;;;;11.97;7.03;;;3.70;99.90;;;;;;5041635;28;20249;-73
2023/03/12 07:42:58;;;;;;;16.47;7.50;;;3.70;99.90;;;;;;5046576;28;20684;-76
2023/03/12 07:45:25;;;;;;;10.60;7.30;;;3.80;99.90;;;;;;5042767;28;20227;-74
2023/03/12 07:47:52;;;;;;;12.93;6.77;;;3.80;99.90;;;;;;5018066;28;20247;-74
2023/03/12 07:50:19;;;;;;;12.30;7.50;;;3.80;99.90;;;;;;5043043;28;20222;-73
2023/03/12 07:52:46;;;;;;;14.80;7.87;;;3.90;99.90;;;;;;5041601;28;20203;-72
2023/03/12 07:55:14;;;;;;;11.37;8.37;;;3.90;99.90;;;;;;5045177;28;20201;-73
2023/03/12 07:57:41;;;;;;;13.80;8.13;;;3.90;99.90;;;;;;5027217;28;20295;-73
2023/03/12 08:00:09;;;;;;;15.40;8.07;;;3.90;99.90;;;;;;5043164;28;20201;-73
2023/03/12 08:02:36;;;;;;;11.43;7.23;;;3.90;99.90;;;;;;5027886;28;20256;-74
2023/03/12 08:05:04;;;;;;;16.90;8.97;;;3.90;99.90;;;;;;5044098;28;20225;-74
2023/03/12 08:07:31;;;;;;;16.13;8.20;;;3.90;99.90;;;;;;5040088;28;20228;-73
2023/03/12 08:09:59;;;;;;;18.83;8.50;;;3.90;99.90;;;;;;5044159;28;20911;-73
2023/03/12 08:12:27;;;;;;;14.70;8.20;;;3.90;99.90;;;;;;5028543;28;20244;-73
2023/03/12 08:14:54;;;;;;;14.87;8.23;;;3.80;99.90;;;;;;5046226;28;20292;-74
2023/03/12 08:17:21;;;;;;;11.30;7.83;;;4.00;99.90;;;;;;5045072;28;20222;-74
2023/03/12 08:19:47;;;;;;;14.47;9.07;;;3.90;99.90;;;;;;5027214;28;20610;-74
2023/03/12 08:22:14;;;;;;;15.80;8.90;;;3.90;99.90;;;;;;5025802;28;20198;-73
2023/03/12 08:24:41;;;;;;;14.70;8.57;;;3.90;99.90;;;;;;5048051;28;20216;-74
2023/03/12 08:27:08;;;;;;;16.13;9.30;;;3.90;99.90;;;;;;5045002;28;20212;-73
2023/03/12 08:29:35;;;;;;;16.30;9.07;;;4.10;99.90;;;;;;5043601;28;20630;-72
2023/03/12 08:32:02;;;;;;;14.63;8.90;;;3.90;99.90;;;;;;5041377;28;20210;-72
2023/03/12 08:34:32;;;;;;;13.37;9.17;;;3.90;99.90;;;;;;5027056;28;20197;-72
2023/03/12 08:37:00;;;;;;;15.80;9.50;;;3.90;99.90;;;;;;5028400;28;20201;-72
2023/03/12 08:39:27;;;;;;;14.37;9.40;;;3.90;99.90;;;;;;5044809;28;20194;-72
2023/03/12 08:41:54;;;;;;;19.23;9.80;;;3.90;99.90;;;;;;5042302;28;20202;-73
2023/03/12 08:44:22;;;;;;;15.37;9.60;;;3.90;99.90;;;;;;5025740;28;20212;-74
2023/03/12 08:46:49;;;;;;;14.53;10.03;;;4.00;99.90;;;;;;5038674;28;20259;-73
2023/03/12 08:49:17;;;;;;;16.40;10.47;;;4.00;99.90;;;;;;5043614;28;20706;-74
2023/03/12 08:51:44;;;;;;;14.10;9.43;;;4.00;99.90;;;;;;5040381;28;20754;-72
2023/03/12 08:54:10;;;;;;;15.33;9.90;;;4.00;99.90;;;;;;5049024;28;20212;-73
2023/03/12 08:56:41;;;;;;;15.87;10.33;;;4.20;99.90;;;;;;5029101;28;20659;-73
2023/03/12 08:59:11;;;;;;;17.40;11.20;;;;;;;;;;5041045;28;20669;-72
2023/03/12 09:01:39;;;;;;;18.77;10.83;;;4.20;99.90;;;;;;5042049;28;20288;-72
2023/03/12 09:04:09;;;;;;;17.63;10.87;;;4.30;99.90;;;;;;5023865;28;20675;-72
2023/03/12 09:06:37;;;;;;;19.13;10.40;;;4.30;99.90;;;;;;5041608;28;20619;-73
2023/03/12 09:09:04;;;;;;;15.93;10.43;;;4.40;99.90;;;;;;5026387;28;20210;-74
2023/03/12 09:11:32;;;;;;;15.70;10.90;;;4.40;99.90;;;;;;5044003;28;20202;-72
2023/03/12 09:14:01;;;;;;;22.80;11.00;;;4.50;99.90;;;;;;5029702;28;20216;-73
2023/03/12 09:16:49;;;;;;;14.07;10.60;;;4.50;99.90;;;;;;5042764;28;20510;-71
2023/03/12 09:19:15;;;;;;;15.90;10.53;;;4.50;99.90;;;;;;5045758;28;20238;-73
2023/03/12 09:21:42;;;;;;;16.40;10.40;;;4.60;99.90;;;;;;5026792;28;20309;-71
2023/03/12 09:24:10;;;;;;;14.63;10.03;;;4.70;99.90;;;;;;5045038;28;20209;-71
2023/03/12 09:26:37;;;;;;;15.73;9.77;;;4.70;99.90;;;;;;5051560;28;20202;-72
2023/03/12 09:29:04;;;;;;;16.17;10.37;;;4.70;99.90;;;;;;5045099;28;20263;-74
2023/03/12 09:31:32;;;;;;;16.93;10.67;;;4.70;99.90;;;;;;5047412;28;20654;-72
2023/03/12 09:33:59;;;;;;;16.47;10.53;;;4.80;99.90;;;;;;5042932;28;20258;-72
2023/03/12 09:36:26;;;;;;;17.23;10.17;;;4.80;99.90;;;;;;5043423;28;20250;-72
2023/03/12 09:38:53;;;;;;;17.50;11.27;;;4.80;99.90;;;;;;5022147;28;20689;-73
2023/03/12 09:41:24;;;;;;;14.50;10.77;;;4.80;99.90;;;;;;5023408;28;20225;-72
2023/03/12 09:43:51;;;;;;;19.50;11.83;;;4.80;99.90;;;;;;5041449;28;20207;-72
2023/03/12 09:46:27;;;;;;;22.17;12.17;;;4.80;99.90;;;;;;5043702;28;20240;-72
2023/03/12 09:48:57;;;;;;;16.40;11.57;;;5.00;99.90;;;;;;5019679;28;20245;-73
2023/03/12 09:51:36;;;;;;;16.67;11.73;;;5.10;99.90;;;;;;5042573;28;20293;-72
2023/03/12 09:54:12;;;;;;;22.53;13.43;;;5.20;99.90;;;;;;5031006;28;20208;-72
2023/03/12 09:56:38;;;;;;;19.47;12.30;;;5.30;99.90;;;;;;5044511;28;20233;-72
2023/03/12 09:59:12;;;;;;;20.53;12.17;;;5.40;99.90;;;;;;5042978;28;20215;-72
2023/03/12 10:01:53;;;;;;;18.13;12.53;;;5.50;99.90;;;;;;5029645;28;20240;-72
2023/03/12 10:04:52;;;;;;;18.83;12.73;;;5.70;99.90;;;;;;5041371;28;20753;-73
2023/03/12 10:07:33;;;;;;;18.53;12.70;;;5.90;99.90;;;;;;5042371;28;20236;-72
2023/03/12 10:10:03;;;;;;;18.13;12.37;;;6.00;99.90;;;;;;5042784;28;20255;-72
2023/03/12 10:12:43;;;;;;;19.70;12.57;;;6.20;99.90;;;;;;5041939;28;20244;-72
2023/03/12 10:15:29;;;;;;;17.80;11.83;;;6.30;99.90;;;;;;5042613;28;20594;-75
2023/03/12 10:18:25;;;;;;;16.13;11.50;;;6.40;99.90;;;;;;5044311;28;20656;-72
2023/03/12 10:21:16;;;;;;;20.53;12.53;;;6.40;99.90;;;;;;5036533;28;20240;-73
2023/03/12 10:24:16;;;;;;;23.10;12.50;;;6.40;99.90;;;;;;5039896;28;20805;-73
2023/03/12 10:26:48;;;;;;;20.23;14.33;;;6.30;99.90;;;;;;5026384;28;20233;-72
2023/03/12 10:29:21;;;;;;;23.07;14.13;;;6.30;99.90;;;;;;5036995;28;20236;-72
2023/03/12 10:32:15;;;;;;;25.60;14.90;;;6.30;99.90;;;;;;5024115;28;20284;-73
2023/03/12 10:34:53;;;;;;;29.40;16.00;;;6.40;99.90;;;;;;5038962;28;20205;-72
2023/03/12 10:37:44;;;;;;;27.67;15.60;;;6.40;99.90;;;;;;5035442;28;20296;-73
2023/03/12 10:40:20;;;;;;;27.83;15.57;;;6.50;99.90;;;;;;5034742;28;20317;-73
2023/03/12 10:42:47;;;;;;;29.47;15.90;;;6.60;99.90;;;;;;5037186;28;20216;-73
2023/03/12 10:45:33;;;;;;;24.83;16.50;;;6.70;99.90;;;;;;5041457;28;20296;-74
2023/03/12 10:48:07;;;;;;;25.87;16.17;;;6.80;99.90;;;;;;5035825;28;20226;-72
2023/03/12 10:50:37;;;;;;;28.60;16.00;;;6.80;99.90;;;;;;5034298;28;20298;-73
2023/03/12 10:53:21;;;;;;;24.57;15.97;;;6.90;99.90;;;;;;5023374;28;20194;-72
2023/03/12 10:56:20;;;;;;;29.30;17.20;;;6.80;99.90;;;;;;5030163;28;20303;-71
2023/03/12 10:58:49;;;;;;;30.57;16.67;;;7.00;99.90;;;;;;4980356;28;20231;-72
2023/03/12 11:01:26;;;;;;;29.57;17.00;;;6.90;99.90;;;;;;5042208;28;20215;-72
2023/03/12 11:04:17;;;;;;;30.83;18.00;;;7.00;99.90;;;;;;5023989;28;20217;-72
2023/03/12 11:07:01;;;;;;;29.83;18.03;;;7.10;99.90;;;;;;5020887;28;20347;-74
2023/03/12 11:09:28;;;;;;;30.73;18.73;;;7.30;99.90;;;;;;5031589;28;20238;-71
2023/03/12 11:11:55;;;;;;;29.27;17.83;;;7.30;99.90;;;;;;5026641;28;20734;-73
2023/03/12 11:14:25;;;;;;;33.70;21.67;;;7.50;99.90;;;;;;5044924;28;20245;-72
2023/03/12 11:16:53;;;;;;;33.37;20.53;;;7.60;99.90;;;;;;5023593;28;20218;-72
2023/03/12 11:19:33;;;;;;;32.63;18.13;;;7.70;99.90;;;;;;5044220;28;20298;-72
2023/03/12 11:22:03;;;;;;;31.00;18.77;;;7.90;99.90;;;;;;5047374;28;20213;-72
2023/03/12 11:24:30;;;;;;;32.60;19.20;;;8.00;99.90;;;;;;5042333;28;20259;-72
2023/03/12 11:27:31;;;;;;;33.70;18.87;;;8.30;99.90;;;;;;5057241;28;20231;-73
2023/03/12 11:29:59;;;;;;;32.80;18.63;;;8.30;99.90;;;;;;5041511;28;20321;-72
2023/03/12 11:32:36;;;;;;;30.47;18.80;;;8.40;99.90;;;;;;5028657;28;20225;-72
2023/03/12 11:35:09;;;;;;;33.90;19.97;;;8.60;99.90;;;;;;5049074;28;20295;-73
2023/03/12 11:37:36;;;;;;;35.67;19.97;;;8.70;99.90;;;;;;5045006;28;20202;-73
2023/03/12 11:40:32;;;;;;;91.27;35.97;;;8.70;99.90;;;;;;5044493;28;20561;-73
2023/03/12 11:43:31;;;;;;;32.07;19.50;;;8.80;99.90;;;;;;5029272;28;20201;-72
2023/03/12 11:46:19;;;;;;;35.57;19.30;;;8.90;99.90;;;;;;5040661;28;20198;-72
2023/03/12 11:49:19;;;;;;;31.90;20.07;;;8.90;99.90;;;;;;5042329;28;20216;-72
2023/03/12 11:52:01;;;;;;;32.33;18.17;;;8.90;99.90;;;;;;5043783;28;20224;-72
2023/03/12 11:55:15;;;;;;;29.80;17.80;;;9.10;99.90;;;;;;5049731;28;20201;-73
2023/03/12 11:57:57;;;;;;;28.60;18.23;;;9.20;99.90;;;;;;5019452;28;20205;-74
2023/03/12 12:00:42;;;;;;;27.97;17.33;;;9.20;99.90;;;;;;5041300;28;20302;-73
2023/03/12 12:03:29;;;;;;;32.13;19.43;;;9.10;99.90;;;;;;5024396;28;20248;-72
2023/03/12 12:06:14;;;;;;;36.93;18.10;;;9.20;99.90;;;;;;5022948;28;20253;-72
2023/03/12 12:09:00;;;;;;;33.53;19.00;;;9.10;99.90;;;;;;5041332;28;20241;-72
2023/03/12 12:11:39;;;;;;;32.07;18.30;;;9.20;99.90;;;;;;5043687;28;20236;-72
2023/03/12 12:14:26;;;;;;;40.53;19.20;;;9.20;99.90;;;;;;5044742;28;20204;-72
2023/03/12 12:17:09;;;;;;;42.80;20.80;;;9.30;99.90;;;;;;5041341;28;20233;-72
2023/03/12 12:20:16;;;;;;;35.37;19.13;;;9.30;99.90;;;;;;5042633;28;20209;-72
2023/03/12 12:23:27;;;;;;;39.27;18.53;;;9.30;99.90;;;;;;5032942;28;20236;-72
2023/03/12 12:26:16;;;;;;;36.73;19.73;;;9.20;99.90;;;;;;5003843;28;20670;-72
2023/03/12 12:29:16;;;;;;;41.03;19.47;;;9.30;99.90;;;;;;5041488;28;20566;-72
2023/03/12 12:31:55;;;;;;;39.00;18.47;;;9.30;99.90;;;;;;5031848;28;20296;-73
2023/03/12 12:34:25;;;;;;;38.17;17.10;;;9.40;99.90;;;;;;5039436;28;20246;-74
2023/03/12 12:37:13;;;;;;;32.23;15.90;;;9.40;99.90;;;;;;5028963;28;20205;-72
2023/03/12 12:39:46;;;;;;;31.40;15.57;;;9.40;99.90;;;;;;5042460;28;20205;-72
2023/03/12 12:42:21;;;;;;;31.93;15.13;;;9.50;99.90;;;;;;5042250;28;20260;-71
2023/03/12 12:44:52;;;;;;;30.43;15.40;;;9.50;99.90;;;;;;5026237;28;20201;-72
2023/03/12 12:47:29;;;;;;;34.67;15.07;;;9.50;99.90;;;;;;5042628;28;20220;-72
2023/03/12 12:49:57;;;;;;;26.83;14.23;;;9.60;99.90;;;;;;5043181;28;20317;-72
2023/03/12 12:52:26;;;;;;;25.60;13.73;;;9.60;99.90;;;;;;5044782;28;20285;-72
2023/03/12 12:54:57;;;;;;;35.90;15.23;;;9.70;99.90;;;;;;5053105;28;20292;-72
2023/03/12 12:57:34;;;;;;;30.37;16.70;;;9.70;99.90;;;;;;5049264;28;20296;-73
2023/03/12 13:00:36;;;;;;;27.07;14.40;;;9.70;99.90;;;;;;5036201;28;20304;-72
2023/03/12 13:03:03;;;;;;;29.13;13.07;;;9.80;99.90;;;;;;5042526;28;20229;-73
2023/03/12 13:05:36;;;;;;;29.77;12.97;;;9.80;99.90;;;;;;5040402;28;20330;-72